Time;durP1;ratioP1;P1;durP2;ratioP2;P2;SDS_P1;SDS_P2;PMS_P1;PMS_P2;Temp;Humidity;BMP_temperature;BMP_pressure;BME280_temperature;BME280_humidity;BME280_pressure;Samples;Min_cycle;Max_cycle;Signal;HPM_P1;HPM_P2
2021/12/04 00:03:17;;;;;;;8.80;3.80;;;;;;;-1.61;66.88;98073.44;209270;1335;22698;-70
2021/12/04 00:08:19;;;;;;;9.30;3.90;;;;;;;-1.58;66.96;98064.81;209355;1341;22592;-70
2021/12/04 00:13:23;;;;;;;7.10;3.30;;;;;;;-1.58;67.20;98061.20;209535;1340;25574;-70
2021/12/04 00:18:25;;;;;;;9.20;4.10;;;;;;;-1.54;67.37;98060.54;209480;1339;24620;-70
2021/12/04 00:23:34;;;;;;;5.90;3.20;;;;;;;-1.55;67.40;98058.96;210152;1340;22568;-69
2021/12/04 00:28:45;;;;;;;7.10;3.70;;;;;;;-1.55;67.57;98060.96;209377;1340;22739;-70
2021/12/04 00:33:49;;;;;;;7.50;4.20;;;;;;;-1.54;67.61;98059.45;209297;1341;24512;-71
2021/12/04 00:49:41;;;;;;;5.60;2.90;;;;;;;-1.58;68.12;98040.20;210265;1341;22974;-70
2021/12/04 00:54:47;;;;;;;6.90;3.60;;;;;;;-1.56;68.35;98034.09;210337;1339;24213;-70
2021/12/04 01:00:12;;;;;;;6.60;3.40;;;;;;;-1.53;68.31;98038.82;210538;1337;22679;-69
2021/12/04 01:05:43;;;;;;;6.10;3.60;;;;;;;-1.54;68.22;98044.20;210460;1340;22813;-70
2021/12/04 01:10:56;;;;;;;5.80;3.60;;;;;;;-1.51;68.33;98046.11;210200;1339;22600;-71
2021/12/04 01:16:00;;;;;;;7.60;3.60;;;;;;;-1.49;68.33;98039.54;210406;1336;22626;-70
2021/12/04 01:21:02;;;;;;;5.00;3.20;;;;;;;-1.52;68.39;98029.96;210059;1339;22592;-71
2021/12/04 01:26:07;;;;;;;8.10;3.80;;;;;;;-1.56;68.50;98030.27;209259;1341;22633;-71
2021/12/04 01:31:19;;;;;;;7.40;4.00;;;;;;;-1.62;68.55;98023.77;209113;1342;23207;-71
2021/12/04 01:36:21;;;;;;;8.00;4.00;;;;;;;-1.69;68.73;98015.82;209546;1342;23020;-71
2021/12/04 01:41:24;;;;;;;7.70;4.40;;;;;;;-1.75;68.90;98012.22;209191;1342;22618;-70
2021/12/04 01:46:35;;;;;;;7.40;4.70;;;;;;;-1.80;69.22;98015.77;209507;1340;24316;-71
2021/12/04 01:51:46;;;;;;;8.10;4.80;;;;;;;-1.85;69.30;98003.73;209288;1339;22674;-72
2021/12/04 01:56:57;;;;;;;7.30;3.90;;;;;;;-1.89;69.61;97996.98;209483;1337;24570;-72
2021/12/04 02:02:00;;;;;;;8.30;4.40;;;;;;;-1.92;69.67;97995.13;209427;1339;22603;-70
2021/12/04 02:07:04;;;;;;;9.20;5.10;;;;;;;-1.96;69.71;97989.36;209558;1339;24276;-70
2021/12/04 02:12:08;;;;;;;7.30;4.30;;;;;;;-2.00;70.01;97986.52;209519;1340;22726;-71
2021/12/04 02:17:10;;;;;;;9.30;5.00;;;;;;;-2.03;70.10;97978.10;209146;1340;22800;-68
2021/12/04 02:22:13;;;;;;;8.80;5.30;;;;;;;-2.04;70.24;97969.58;209354;1340;22770;-71
2021/12/04 02:27:15;;;;;;;8.30;4.50;;;;;;;-2.04;70.59;97962.16;209311;1339;22569;-70
2021/12/04 02:32:38;;;;;;;8.90;4.80;;;;;;;-1.98;70.63;97950.02;209138;1335;22600;-71
2021/12/04 02:37:41;;;;;;;8.00;4.70;;;;;;;-1.98;70.47;97938.52;210203;1341;25044;-71
2021/12/04 02:42:45;;;;;;;9.60;5.00;;;;;;;-2.02;70.69;97934.84;210236;1341;22644;-70
2021/12/04 02:47:47;;;;;;;10.30;5.30;;;;;;;-2.01;70.97;97934.33;210288;1341;22703;-70
2021/12/04 02:52:50;;;;;;;10.10;4.90;;;;;;;-1.98;70.91;97935.23;209250;1341;25681;-71
2021/12/04 02:57:52;;;;;;;7.80;4.70;;;;;;;-1.97;70.90;97934.63;209332;1339;22729;-70
2021/12/04 03:02:56;;;;;;;9.30;4.50;;;;;;;-1.95;71.00;97937.91;210188;1336;23542;-69
2021/12/04 03:08:00;;;;;;;7.70;4.70;;;;;;;-1.96;70.93;97934.70;210265;1342;25781;-71
2021/12/04 03:13:07;;;;;;;6.70;4.40;;;;;;;-1.96;71.03;97927.88;210239;1335;25548;-71
2021/12/04 03:18:18;;;;;;;7.70;4.20;;;;;;;-1.96;71.16;97923.35;210042;1340;22636;-71
2021/12/04 03:23:33;;;;;;;7.30;4.70;;;;;;;-1.95;71.12;97914.89;210526;1339;25474;-70
2021/12/04 03:28:45;;;;;;;6.60;4.10;;;;;;;-1.92;71.28;97897.67;210354;1342;22583;-70
2021/12/04 03:44:40;;;;;;;7.70;4.70;;;;;;;-1.92;71.13;97891.85;210264;1340;24427;-71
2021/12/04 03:49:43;;;;;;;7.40;4.30;;;;;;;-1.95;71.25;97883.05;210024;1340;22684;-71
2021/12/04 03:54:45;;;;;;;6.40;4.20;;;;;;;-1.95;71.34;97874.83;210400;1333;22613;-69
2021/12/04 04:00:04;;;;;;;7.40;4.60;;;;;;;-1.96;71.44;97871.30;210436;1336;22631;-69
2021/12/04 04:05:28;;;;;;;5.70;3.90;;;;;;;-1.94;71.49;97859.38;210342;1341;22739;-71
2021/12/04 04:10:37;;;;;;;5.80;3.70;;;;;;;-1.92;71.27;97846.39;210196;1335;22675;-70
2021/12/04 04:16:01;;;;;;;7.70;5.00;;;;;;;-1.95;71.30;97837.70;210121;1341;23100;-71
2021/12/04 04:21:03;;;;;;;10.10;5.20;;;;;;;-1.94;71.21;97831.84;209388;1335;25398;-69
2021/12/04 04:26:08;;;;;;;8.90;5.30;;;;;;;-1.93;71.18;97830.40;209056;1339;24820;-72
2021/12/04 04:31:10;;;;;;;11.70;5.80;;;;;;;-1.93;71.34;97831.30;210043;1336;22621;-70
2021/12/04 04:36:30;;;;;;;10.70;5.50;;;;;;;-1.90;71.30;97823.95;210657;1336;24350;-70
2021/12/04 05:13:27;;;;;;;5.80;3.40;;;;;;;-1.69;70.75;97761.04;210071;1333;247179;-72
2021/12/04 05:18:36;;;;;;;6.80;3.90;;;;;;;-1.71;70.67;97759.52;210315;1341;24272;-71
2021/12/04 05:23:54;;;;;;;6.90;3.80;;;;;;;-1.70;70.78;97757.59;210260;1338;22739;-71
2021/12/04 05:28:59;;;;;;;6.00;3.60;;;;;;;-1.67;70.88;97755.86;209005;1339;22679;-70
2021/12/04 05:34:23;;;;;;;7.40;4.10;;;;;;;-1.68;70.76;97753.54;209222;1340;24308;-70
2021/12/04 05:39:26;;;;;;;6.60;4.10;;;;;;;-1.71;70.78;97752.85;209410;1337;22621;-71
2021/12/04 05:44:30;;;;;;;9.30;4.90;;;;;;;-1.78;70.59;97743.98;209364;1340;22604;-71
2021/12/04 06:00:22;;;;;;;10.60;5.90;;;;;;;-2.01;70.64;97745.81;209402;1333;24278;-70
2021/12/04 06:05:25;;;;;;;10.30;7.00;;;;;;;-2.05;70.69;97741.89;209003;1341;25773;-70
2021/12/04 06:10:29;;;;;;;14.40;6.50;;;;;;;-2.05;70.89;97741.43;209433;1336;22997;-71
2021/12/04 06:15:34;;;;;;;13.30;6.90;;;;;;;-2.04;71.06;97734.67;210509;1337;24992;-71
2021/12/04 06:26:22;;;;;;;10.10;6.40;;;;;;;-2.10;70.88;97745.20;210295;1340;24594;-70
2021/12/04 06:31:35;;;;;;;12.90;5.50;;;;;;;-2.18;70.81;97753.34;210299;1336;22931;-70
2021/12/04 06:36:37;;;;;;;12.40;6.60;;;;;;;-2.26;70.77;97758.12;210257;1337;25586;-70
2021/12/04 06:41:42;;;;;;;16.00;8.20;;;;;;;-2.33;70.71;97762.38;209308;1340;24345;-71
2021/12/04 06:46:55;;;;;;;15.90;8.60;;;;;;;-2.36;70.76;97766.75;210196;1335;22658;-71
2021/12/04 06:52:21;;;;;;;17.30;8.60;;;;;;;-2.31;70.94;97768.55;210247;1336;22641;-71
2021/12/04 06:57:23;;;;;;;18.30;9.00;;;;;;;-2.24;71.12;97771.85;210319;1340;22627;-69
2021/12/04 07:02:26;;;;;;;19.70;9.80;;;;;;;-2.19;71.22;97769.23;210419;1340;22612;-70
2021/12/04 07:07:35;;;;;;;25.20;10.10;;;;;;;-2.16;71.06;97767.20;210621;1340;22609;-71
2021/12/04 07:12:38;;;;;;;22.30;10.30;;;;;;;-2.15;71.07;97753.05;209158;1335;22579;-71
2021/12/04 07:17:40;;;;;;;25.80;9.40;;;;;;;-2.15;71.07;97747.42;208914;1336;22618;-70
2021/12/04 07:22:42;;;;;;;17.20;8.40;;;;;;;-2.15;70.93;97735.98;208976;1337;22613;-70
2021/12/04 07:27:46;;;;;;;19.10;9.60;;;;;;;-2.14;70.79;97725.98;209333;1338;24374;-71
2021/12/04 07:32:51;;;;;;;22.00;9.80;;;;;;;-2.08;70.84;97722.30;210328;1337;23178;-70
2021/12/04 07:37:56;;;;;;;21.90;9.20;;;;;;;-1.97;70.97;97717.48;209395;1336;24316;-71
2021/12/04 07:42:58;;;;;;;20.90;8.70;;;;;;;-1.71;71.46;97721.33;209369;1341;25465;-70
2021/12/04 07:48:01;;;;;;;14.60;7.10;;;;;;;-1.13;71.26;97722.92;210502;1335;22595;-71
2021/12/04 07:53:09;;;;;;;19.30;8.10;;;;;;;-0.96;70.24;97721.36;210557;1342;22812;-69
2021/12/04 07:58:13;;;;;;;18.60;7.30;;;;;;;-0.87;69.91;97709.14;210737;1334;24009;-71
2021/12/04 08:03:26;;;;;;;21.70;10.10;;;;;;;-0.88;69.48;97700.96;210789;1335;24429;-70
2021/12/04 08:08:35;;;;;;;24.40;10.10;;;;;;;-0.88;69.45;97700.98;210472;1336;22609;-70
2021/12/04 08:13:41;;;;;;;21.40;10.90;;;;;;;-0.84;69.40;97696.40;210207;1335;22932;-69
2021/12/04 08:18:48;;;;;;;23.60;11.30;;;;;;;-0.75;69.45;97696.27;210563;1336;22671;-70
2021/12/04 08:23:52;;;;;;;23.70;11.20;;;;;;;-0.61;69.37;97690.83;210716;1336;24486;-70
2021/12/04 08:28:54;;;;;;;30.70;13.10;;;;;;;-0.51;68.93;97690.45;210518;1336;23259;-70
2021/12/04 08:34:04;;;;;;;30.00;14.00;;;;;;;0.02;70.05;97684.02;210418;1336;24337;-70
2021/12/04 08:39:07;;;;;;;29.00;13.80;;;;;;;0.63;68.51;97682.65;210782;1336;24486;-70
2021/12/04 08:44:09;;;;;;;32.30;14.10;;;;;;;0.71;67.23;97677.02;208911;1335;24429;-70
2021/12/04 08:49:13;;;;;;;30.50;14.30;;;;;;;0.68;67.06;97672.52;210448;1333;24284;-70
2021/12/04 08:54:15;;;;;;;31.50;14.60;;;;;;;0.76;66.86;97674.18;210640;1336;22694;-70
2021/12/04 08:59:18;;;;;;;27.70;13.40;;;;;;;0.79;66.71;97676.30;209183;1336;22628;-70
2021/12/04 09:04:26;;;;;;;35.40;13.50;;;;;;;0.87;66.90;97669.08;209013;1336;22633;-69
2021/12/04 09:09:40;;;;;;;30.70;13.70;;;;;;;0.98;66.37;97658.14;209237;1333;22599;-69
2021/12/04 09:14:57;;;;;;;23.90;12.00;;;;;;;1.12;65.80;97651.43;209474;1337;22636;-69
2021/12/04 09:20:00;;;;;;;25.50;12.70;;;;;;;1.22;65.12;97646.38;209494;1336;24365;-70
2021/12/04 09:25:14;;;;;;;25.40;12.10;;;;;;;1.25;64.43;97644.43;209164;1335;24345;-70
2021/12/04 09:30:57;;;;;;;16.00;9.20;;;;;;;1.32;64.57;97637.89;209346;1336;25920;-69
2021/12/04 10:03:20;;;;;;;14.80;8.20;;;;;;;2.16;62.45;97583.23;210373;1336;22643;-71
2021/12/04 10:36:03;;;;;;;20.10;8.80;;;;;;;3.45;60.33;97547.92;210302;1335;22616;-71
2021/12/04 10:41:06;;;;;;;14.50;8.40;;;;;;;3.78;60.43;97539.08;210471;1339;22632;-71
2021/12/04 10:46:15;;;;;;;16.20;7.70;;;;;;;3.99;59.61;97529.77;210690;1336;22609;-70
2021/12/04 10:51:33;;;;;;;12.50;7.30;;;;;;;4.01;56.59;97531.66;209293;1338;22668;-70
2021/12/04 10:57:02;;;;;;;15.00;6.70;;;;;;;3.95;56.76;97519.63;209256;1340;22794;-69
2021/12/04 11:02:26;;;;;;;10.70;6.20;;;;;;;4.03;57.03;97506.38;208691;1338;22690;-71
2021/12/04 11:46:19;;;;;;;;;;;;;;;3.41;56.60;97428.77;210322;1340;22603;-70
2021/12/04 11:51:43;;;;;;;10.00;4.90;;;;;;;3.34;56.58;97422.71;210533;1335;22651;-70
2021/12/04 11:56:45;;;;;;;9.30;5.10;;;;;;;3.27;56.92;97426.40;210941;1335;22793;-70
2021/12/04 12:01:56;;;;;;;10.60;6.00;;;;;;;3.22;57.32;97416.80;209995;1335;22622;-71
2021/12/04 12:07:23;;;;;;;10.80;7.30;;;;;;;3.17;56.93;97414.64;210673;1334;22654;-69
2021/12/04 12:13:26;;;;;;;9.70;6.00;;;;;;;3.07;56.16;97414.59;209383;1340;23073;-70
2021/12/04 12:18:57;;;;;;;10.90;5.50;;;;;;;3.00;56.72;97410.93;209453;1341;22680;-70
2021/12/04 12:40:16;;;;;;;14.70;8.20;;;;;;;3.23;58.26;97396.05;209567;1341;22599;-70
2021/12/04 12:45:56;;;;;;;11.40;7.20;;;;;;;3.22;58.66;97387.89;209657;1333;22641;-70
2021/12/04 12:51:06;;;;;;;14.80;8.50;;;;;;;3.20;58.72;97390.65;209344;1338;24036;-69
2021/12/04 12:56:21;;;;;;;12.70;7.50;;;;;;;3.24;59.02;97402.59;209889;1341;23353;-70
2021/12/04 13:12:21;;;;;;;15.60;8.20;;;;;;;3.11;59.48;97408.45;209997;1341;248869;-70
2021/12/04 13:17:29;;;;;;;16.70;8.30;;;;;;;3.03;59.37;97411.34;209723;1340;22592;-70
2021/12/04 13:22:35;;;;;;;15.70;9.20;;;;;;;2.91;59.57;97413.46;210688;1340;22601;-70
2021/12/04 13:32:44;;;;;;;16.90;8.20;;;;;;;2.69;59.58;97428.20;210369;1341;22694;-71
2021/12/04 13:37:55;;;;;;;10.70;5.90;;;;;;;2.62;60.68;97429.70;210710;1339;22634;-71
2021/12/04 13:42:58;;;;;;;19.30;10.60;;;;;;;2.39;62.22;97421.61;210345;1340;22599;-70
2021/12/04 13:48:00;;;;;;;12.40;6.10;;;;;;;2.34;63.01;97416.34;210329;1337;22625;-71
2021/12/04 13:53:07;;;;;;;14.70;6.20;;;;;;;2.24;63.71;97407.42;210234;1341;22728;-70
2021/12/04 13:58:13;;;;;;;12.00;6.30;;;;;;;2.34;64.22;97410.79;209479;1334;22654;-70
2021/12/04 14:03:21;;;;;;;12.70;5.80;;;;;;;2.49;64.45;97397.42;209363;1342;22650;-71
2021/12/04 14:08:51;;;;;;;11.30;6.80;;;;;;;2.58;64.53;97397.45;209468;1336;22657;-71
2021/12/04 14:14:13;;;;;;;11.90;6.00;;;;;;;2.61;64.54;97399.40;209424;1339;25507;-71
2021/12/04 14:19:25;;;;;;;15.10;6.60;;;;;;;2.53;64.48;97394.08;210296;1340;24363;-70
2021/12/04 14:24:33;;;;;;;15.80;7.00;;;;;;;2.42;64.19;97386.02;209472;1341;22732;-71
2021/12/04 14:29:51;;;;;;;16.00;8.10;;;;;;;2.31;64.60;97387.42;209189;1341;24257;-71
2021/12/04 14:35:06;;;;;;;23.70;10.30;;;;;;;2.27;64.90;97386.80;209426;1341;22610;-71
2021/12/04 14:40:15;;;;;;;20.50;9.70;;;;;;;2.24;65.27;97381.64;210655;1336;24480;-70
2021/12/04 14:45:25;;;;;;;22.00;10.70;;;;;;;2.20;65.01;97378.36;210593;1335;23156;-71
2021/12/04 14:50:37;;;;;;;21.40;10.20;;;;;;;2.16;65.13;97386.45;210356;1336;24399;-70
2021/12/04 14:55:42;;;;;;;23.10;11.30;;;;;;;2.11;65.36;97389.48;210475;1335;24361;-71
2021/12/04 15:00:49;;;;;;;23.00;10.30;;;;;;;2.05;65.43;97391.55;210432;1335;22664;-70
2021/12/04 15:05:55;;;;;;;24.80;10.50;;;;;;;2.00;65.31;97390.92;209097;1337;24445;-70
2021/12/04 15:11:00;;;;;;;19.60;9.00;;;;;;;1.98;65.35;97391.24;209346;1335;22688;-70
2021/12/04 15:16:13;;;;;;;20.90;9.50;;;;;;;1.93;65.25;97389.30;209172;1341;22626;-70
2021/12/04 15:21:18;;;;;;;23.90;10.20;;;;;;;1.91;65.07;97383.95;209315;1336;22627;-70
2021/12/04 15:26:32;;;;;;;27.10;12.00;;;;;;;1.95;65.19;97379.52;209050;1335;22747;-70
2021/12/04 15:31:39;;;;;;;30.50;12.40;;;;;;;2.00;65.35;97381.73;209211;1335;22633;-70
2021/12/04 15:36:47;;;;;;;25.80;12.00;;;;;;;2.01;65.23;97380.62;208816;1337;24393;-70
2021/12/04 15:47:52;;;;;;;30.50;13.70;;;;;;;2.03;65.56;97380.04;210362;1335;23165;-70
2021/12/04 15:53:08;;;;;;;28.40;11.90;;;;;;;2.03;65.21;97385.21;210781;1340;24794;-71
2021/12/04 15:58:16;;;;;;;32.90;14.00;;;;;;;2.04;65.16;97385.10;210627;1336;24209;-71
2021/12/04 16:03:30;;;;;;;20.60;9.80;;;;;;;2.03;65.05;97381.67;210505;1339;22659;-70
2021/12/04 16:08:54;;;;;;;23.70;11.20;;;;;;;2.03;64.96;97381.30;210591;1333;22936;-70
2021/12/04 16:14:04;;;;;;;42.30;16.80;;;;;;;2.06;65.63;97375.02;210428;1342;22676;-70
2021/12/04 16:19:09;;;;;;;38.30;18.20;;;;;;;2.05;65.93;97373.02;210672;1335;22760;-70
2021/12/04 16:24:11;;;;;;;37.60;18.70;;;;;;;2.02;66.30;97378.40;210377;1336;22618;-70
2021/12/04 16:29:15;;;;;;;37.20;18.70;;;;;;;1.98;67.12;97378.20;208947;1336;22602;-70
2021/12/04 16:39:31;;;;;;;31.90;13.80;;;;;;;1.93;66.54;97362.98;210505;1336;22625;-70
2021/12/04 16:44:34;;;;;;;28.80;12.40;;;;;;;1.89;66.02;97360.09;210292;1336;22684;-69
2021/12/04 16:49:40;;;;;;;23.40;11.90;;;;;;;1.82;65.88;97356.83;210488;1336;22590;-70
2021/12/04 16:59:54;;;;;;;37.30;19.90;;;;;;;1.78;65.95;97357.36;209560;1333;23891;-69
2021/12/04 17:04:57;;;;;;;53.90;22.30;;;;;;;1.73;66.07;97351.17;209024;1336;24588;-70
2021/12/04 17:10:00;;;;;;;51.50;22.90;;;;;;;1.64;66.26;97351.29;210815;1335;24438;-72
2021/12/04 17:15:07;;;;;;;54.50;24.70;;;;;;;1.63;66.64;97355.36;210543;1333;24359;-71
2021/12/04 17:20:12;;;;;;;49.40;21.70;;;;;;;1.66;67.04;97350.28;210563;1335;22601;-70
2021/12/04 17:25:16;;;;;;;52.50;22.80;;;;;;;1.71;66.58;97357.45;210183;1336;27562;-70
2021/12/04 17:30:20;;;;;;;37.10;16.80;;;;;;;1.76;66.65;97349.02;210158;1339;26560;-70
2021/12/04 17:35:22;;;;;;;33.80;15.30;;;;;;;1.79;66.38;97338.13;209020;1336;25651;-70
2021/12/04 17:40:24;;;;;;;29.40;12.80;;;;;;;1.81;65.98;97340.55;208860;1334;22598;-70
2021/12/04 17:45:39;;;;;;;27.40;13.00;;;;;;;1.80;65.86;97339.71;209191;1336;26465;-70
2021/12/04 17:50:44;;;;;;;23.50;11.70;;;;;;;1.80;65.75;97337.13;209230;1333;25578;-70
2021/12/04 17:55:51;;;;;;;24.10;11.60;;;;;;;1.79;65.96;97333.96;208848;1335;25341;-71
2021/12/04 18:01:00;;;;;;;35.40;13.70;;;;;;;1.79;65.86;97336.44;209059;1336;25264;-70
2021/12/04 18:06:14;;;;;;;42.60;18.40;;;;;;;1.82;65.87;97329.94;210393;1336;24394;-69
2021/12/04 18:11:20;;;;;;;53.00;22.40;;;;;;;1.85;65.80;97328.61;209030;1336;25533;-70
2021/12/04 18:16:33;;;;;;;48.90;21.60;;;;;;;1.85;66.09;97324.49;208913;1335;25472;-71
2021/12/04 18:21:38;;;;;;;45.20;19.70;;;;;;;1.87;66.20;97329.19;209500;1336;25404;-69
2021/12/04 18:26:44;;;;;;;34.00;16.10;;;;;;;1.88;65.90;97330.30;208872;1339;24472;-69
2021/12/04 18:31:47;;;;;;;33.20;15.90;;;;;;;1.90;65.89;97325.49;210908;1341;25507;-70
2021/12/04 18:36:50;;;;;;;27.30;14.00;;;;;;;1.91;65.66;97321.95;209588;1335;25278;-70
2021/12/04 18:41:54;;;;;;;26.60;12.80;;;;;;;1.91;65.50;97320.42;210513;1339;22782;-70
2021/12/04 18:46:57;;;;;;;31.10;13.90;;;;;;;1.88;65.22;97320.46;210248;1336;22573;-71
2021/12/04 18:52:00;;;;;;;35.10;15.00;;;;;;;1.88;65.38;97316.36;210287;1337;22640;-69
2021/12/04 18:57:06;;;;;;;37.50;17.40;;;;;;;1.91;65.33;97310.43;208893;1336;22755;-70
2021/12/04 19:02:09;;;;;;;38.80;17.90;;;;;;;1.96;65.06;97306.46;209114;1336;22827;-70
2021/12/04 19:07:11;;;;;;;39.80;18.60;;;;;;;2.00;65.21;97304.08;210461;1340;22642;-71
2021/12/04 19:12:14;;;;;;;38.10;17.90;;;;;;;2.01;64.84;97300.42;210287;1339;22797;-69
2021/12/04 19:17:20;;;;;;;60.60;27.10;;;;;;;2.03;64.80;97298.58;209148;1339;24730;-70
2021/12/04 19:22:22;;;;;;;67.90;31.30;;;;;;;2.00;64.99;97295.88;208952;1335;24308;-71
2021/12/04 19:27:24;;;;;;;62.20;28.40;;;;;;;1.93;64.89;97294.05;209149;1335;24370;-70
2021/12/04 19:32:30;;;;;;;47.10;22.60;;;;;;;1.83;65.23;97291.96;209106;1337;22617;-69
